sensor_id;sensor_type;location;lat;lon;timestamp;P1;durP1;ratioP1;P2;durP2;ratioP2
49041;SDS011;34859;51.608;11.462;2022-10-16T00:01:59;0.50;;;0.50;;
49041;SDS011;34859;51.608;11.462;2022-10-16T00:04:43;0.55;;;0.55;;
49041;SDS011;34859;51.608;11.462;2022-10-16T00:07:28;1.30;;;0.63;;
49041;SDS011;34859;51.608;11.462;2022-10-16T00:10:12;0.50;;;0.50;;
49041;SDS011;34859;51.608;11.462;2022-10-16T00:12:56;0.50;;;0.40;;
49041;SDS011;34859;51.608;11.462;2022-10-16T00:15:37;2.80;;;0.40;;
49041;SDS011;34859;51.608;11.462;2022-10-16T00:21:14;1.50;;;0.40;;
49041;SDS011;34859;51.608;11.462;2022-10-16T00:24:01;0.40;;;0.40;;
49041;SDS011;34859;51.608;11.462;2022-10-16T00:26:49;1.35;;;0.45;;
49041;SDS011;34859;51.608;11.462;2022-10-16T00:29:34;0.40;;;0.40;;
49041;SDS011;34859;51.608;11.462;2022-10-16T00:32:18;0.73;;;0.38;;
49041;SDS011;34859;51.608;11.462;2022-10-16T00:35:03;2.55;;;0.43;;
49041;SDS011;34859;51.608;11.462;2022-10-16T00:37:47;0.82;;;0.30;;
49041;SDS011;34859;51.608;11.462;2022-10-16T00:40:31;0.52;;;0.30;;
49041;SDS011;34859;51.608;11.462;2022-10-16T00:46:20;0.50;;;0.30;;
49041;SDS011;34859;51.608;11.462;2022-10-16T00:49:16;1.63;;;0.30;;
49041;SDS011;34859;51.608;11.462;2022-10-16T00:52:03;0.93;;;0.30;;
49041;SDS011;34859;51.608;11.462;2022-10-16T00:54:49;2.15;;;0.32;;
49041;SDS011;34859;51.608;11.462;2022-10-16T00:57:34;0.30;;;0.30;;
49041;SDS011;34859;51.608;11.462;2022-10-16T01:00:21;0.52;;;0.35;;
49041;SDS011;34859;51.608;11.462;2022-10-16T01:03:25;0.30;;;0.30;;
49041;SDS011;34859;51.608;11.462;2022-10-16T01:21:19;0.43;;;0.30;;
49041;SDS011;34859;51.608;11.462;2022-10-16T01:24:15;0.40;;;0.40;;
49041;SDS011;34859;51.608;11.462;2022-10-16T01:35:35;0.40;;;0.40;;
49041;SDS011;34859;51.608;11.462;2022-10-16T01:38:29;0.65;;;0.47;;
49041;SDS011;34859;51.608;11.462;2022-10-16T01:41:15;0.40;;;0.40;;
49041;SDS011;34859;51.608;11.462;2022-10-16T01:44:08;0.40;;;0.40;;
49041;SDS011;34859;51.608;11.462;2022-10-16T01:47:08;1.17;;;0.60;;
49041;SDS011;34859;51.608;11.462;2022-10-16T01:49:55;1.00;;;0.73;;
49041;SDS011;34859;51.608;11.462;2022-10-16T01:52:43;0.63;;;0.63;;
49041;SDS011;34859;51.608;11.462;2022-10-16T01:55:31;0.73;;;0.40;;
49041;SDS011;34859;51.608;11.462;2022-10-16T01:58:19;0.50;;;0.50;;
49041;SDS011;34859;51.608;11.462;2022-10-16T02:01:03;0.50;;;0.50;;
49041;SDS011;34859;51.608;11.462;2022-10-16T02:03:51;3.25;;;0.40;;
49041;SDS011;34859;51.608;11.462;2022-10-16T02:06:40;0.57;;;0.57;;
49041;SDS011;34859;51.608;11.462;2022-10-16T02:09:24;0.55;;;0.55;;
49041;SDS011;34859;51.608;11.462;2022-10-16T02:12:11;2.08;;;0.80;;
49041;SDS011;34859;51.608;11.462;2022-10-16T02:14:59;1.50;;;0.40;;
49041;SDS011;34859;51.608;11.462;2022-10-16T02:17:43;0.80;;;0.43;;
49041;SDS011;34859;51.608;11.462;2022-10-16T02:20:28;0.57;;;0.40;;
49041;SDS011;34859;51.608;11.462;2022-10-16T02:23:19;0.45;;;0.45;;
49041;SDS011;34859;51.608;11.462;2022-10-16T02:26:30;0.65;;;0.50;;
49041;SDS011;34859;51.608;11.462;2022-10-16T02:32:24;1.33;;;0.50;;
49041;SDS011;34859;51.608;11.462;2022-10-16T02:35:18;0.80;;;0.52;;
49041;SDS011;34859;51.608;11.462;2022-10-16T02:38:04;0.35;;;0.35;;
49041;SDS011;34859;51.608;11.462;2022-10-16T02:43:34;0.40;;;0.40;;
49041;SDS011;34859;51.608;11.462;2022-10-16T02:46:17;0.68;;;0.40;;
49041;SDS011;34859;51.608;11.462;2022-10-16T02:49:02;0.82;;;0.82;;
49041;SDS011;34859;51.608;11.462;2022-10-16T02:51:46;0.30;;;0.30;;
49041;SDS011;34859;51.608;11.462;2022-10-16T02:54:30;0.50;;;0.50;;
49041;SDS011;34859;51.608;11.462;2022-10-16T02:57:14;0.50;;;0.40;;
49041;SDS011;34859;51.608;11.462;2022-10-16T02:59:59;0.50;;;0.50;;
49041;SDS011;34859;51.608;11.462;2022-10-16T03:02:43;0.40;;;0.30;;
49041;SDS011;34859;51.608;11.462;2022-10-16T03:05:28;0.60;;;0.50;;
49041;SDS011;34859;51.608;11.462;2022-10-16T03:08:13;0.90;;;0.55;;
49041;SDS011;34859;51.608;11.462;2022-10-16T03:13:42;0.50;;;0.50;;
49041;SDS011;34859;51.608;11.462;2022-10-16T03:16:26;1.38;;;0.38;;
49041;SDS011;34859;51.608;11.462;2022-10-16T03:19:10;0.68;;;0.68;;
49041;SDS011;34859;51.608;11.462;2022-10-16T03:21:54;0.60;;;0.60;;
49041;SDS011;34859;51.608;11.462;2022-10-16T03:24:38;1.27;;;0.60;;
49041;SDS011;34859;51.608;11.462;2022-10-16T03:27:22;2.53;;;0.50;;
49041;SDS011;34859;51.608;11.462;2022-10-16T03:30:06;2.00;;;0.60;;
49041;SDS011;34859;51.608;11.462;2022-10-16T03:35:37;0.50;;;0.50;;
49041;SDS011;34859;51.608;11.462;2022-10-16T03:38:21;0.60;;;0.60;;
49041;SDS011;34859;51.608;11.462;2022-10-16T03:41:05;1.40;;;0.65;;
49041;SDS011;34859;51.608;11.462;2022-10-16T03:43:51;0.82;;;0.40;;
49041;SDS011;34859;51.608;11.462;2022-10-16T03:46:35;0.97;;;0.53;;
49041;SDS011;34859;51.608;11.462;2022-10-16T03:49:19;0.73;;;0.60;;
49041;SDS011;34859;51.608;11.462;2022-10-16T03:52:03;2.90;;;0.60;;
49041;SDS011;34859;51.608;11.462;2022-10-16T03:54:47;0.75;;;0.75;;
49041;SDS011;34859;51.608;11.462;2022-10-16T03:57:31;0.67;;;0.67;;
49041;SDS011;34859;51.608;11.462;2022-10-16T04:00:15;0.77;;;0.70;;
49041;SDS011;34859;51.608;11.462;2022-10-16T04:03:00;1.10;;;1.10;;
49041;SDS011;34859;51.608;11.462;2022-10-16T04:05:44;0.95;;;0.95;;
49041;SDS011;34859;51.608;11.462;2022-10-16T04:08:28;0.90;;;0.90;;
49041;SDS011;34859;51.608;11.462;2022-10-16T04:11:13;0.70;;;0.70;;
49041;SDS011;34859;51.608;11.462;2022-10-16T04:13:57;0.80;;;0.80;;
49041;SDS011;34859;51.608;11.462;2022-10-16T04:16:41;0.70;;;0.70;;
49041;SDS011;34859;51.608;11.462;2022-10-16T04:19:25;0.90;;;0.90;;
49041;SDS011;34859;51.608;11.462;2022-10-16T04:22:11;0.73;;;0.73;;
49041;SDS011;34859;51.608;11.462;2022-10-16T04:24:56;0.65;;;0.60;;
49041;SDS011;34859;51.608;11.462;2022-10-16T04:27:40;2.90;;;0.70;;
49041;SDS011;34859;51.608;11.462;2022-10-16T04:30:24;0.65;;;0.63;;
49041;SDS011;34859;51.608;11.462;2022-10-16T04:33:09;1.15;;;0.98;;
49041;SDS011;34859;51.608;11.462;2022-10-16T04:36:00;0.57;;;0.57;;
49041;SDS011;34859;51.608;11.462;2022-10-16T04:38:45;0.82;;;0.80;;
49041;SDS011;34859;51.608;11.462;2022-10-16T04:41:29;0.68;;;0.68;;
49041;SDS011;34859;51.608;11.462;2022-10-16T04:44:13;1.03;;;0.77;;
49041;SDS011;34859;51.608;11.462;2022-10-16T04:46:57;2.25;;;0.75;;
49041;SDS011;34859;51.608;11.462;2022-10-16T04:49:41;0.77;;;0.77;;
49041;SDS011;34859;51.608;11.462;2022-10-16T04:52:25;0.60;;;0.60;;
49041;SDS011;34859;51.608;11.462;2022-10-16T04:55:09;0.82;;;0.82;;
49041;SDS011;34859;51.608;11.462;2022-10-16T04:57:53;0.73;;;0.73;;
49041;SDS011;34859;51.608;11.462;2022-10-16T05:00:38;0.60;;;0.60;;
49041;SDS011;34859;51.608;11.462;2022-10-16T05:03:22;0.82;;;0.82;;
49041;SDS011;34859;51.608;11.462;2022-10-16T05:06:07;0.90;;;0.90;;
49041;SDS011;34859;51.608;11.462;2022-10-16T05:08:51;0.70;;;0.70;;
49041;SDS011;34859;51.608;11.462;2022-10-16T05:11:35;1.23;;;0.70;;
49041;SDS011;34859;51.608;11.462;2022-10-16T05:14:20;0.77;;;0.77;;
49041;SDS011;34859;51.608;11.462;2022-10-16T05:17:04;0.82;;;0.82;;
49041;SDS011;34859;51.608;11.462;2022-10-16T05:19:48;2.33;;;1.20;;
49041;SDS011;34859;51.608;11.462;2022-10-16T05:22:32;1.15;;;1.08;;
49041;SDS011;34859;51.608;11.462;2022-10-16T05:25:16;3.97;;;1.10;;
49041;SDS011;34859;51.608;11.462;2022-10-16T05:28:00;1.30;;;1.20;;
49041;SDS011;34859;51.608;11.462;2022-10-16T05:30:44;0.95;;;0.95;;
49041;SDS011;34859;51.608;11.462;2022-10-16T05:33:28;2.15;;;1.02;;
49041;SDS011;34859;51.608;11.462;2022-10-16T05:36:12;1.10;;;1.00;;
49041;SDS011;34859;51.608;11.462;2022-10-16T05:38:57;0.95;;;0.95;;
49041;SDS011;34859;51.608;11.462;2022-10-16T05:41:41;2.63;;;1.25;;
49041;SDS011;34859;51.608;11.462;2022-10-16T05:47:12;1.25;;;1.17;;
49041;SDS011;34859;51.608;11.462;2022-10-16T05:49:54;1.23;;;1.13;;
49041;SDS011;34859;51.608;11.462;2022-10-16T05:52:39;1.48;;;1.40;;
49041;SDS011;34859;51.608;11.462;2022-10-16T05:55:23;1.10;;;1.10;;
49041;SDS011;34859;51.608;11.462;2022-10-16T05:58:07;1.50;;;1.40;;
49041;SDS011;34859;51.608;11.462;2022-10-16T06:00:58;2.05;;;0.90;;
49041;SDS011;34859;51.608;11.462;2022-10-16T06:03:45;1.67;;;1.13;;
49041;SDS011;34859;51.608;11.462;2022-10-16T06:06:29;1.10;;;1.10;;
49041;SDS011;34859;51.608;11.462;2022-10-16T06:09:11;1.48;;;0.95;;
49041;SDS011;34859;51.608;11.462;2022-10-16T06:11:55;1.00;;;0.93;;
49041;SDS011;34859;51.608;11.462;2022-10-16T06:14:39;1.15;;;1.02;;
49041;SDS011;34859;51.608;11.462;2022-10-16T06:17:23;3.60;;;1.27;;
49041;SDS011;34859;51.608;11.462;2022-10-16T06:20:08;0.88;;;0.88;;
49041;SDS011;34859;51.608;11.462;2022-10-16T06:22:52;2.00;;;1.23;;
49041;SDS011;34859;51.608;11.462;2022-10-16T06:25:36;2.50;;;0.90;;
49041;SDS011;34859;51.608;11.462;2022-10-16T06:28:21;2.58;;;0.93;;
49041;SDS011;34859;51.608;11.462;2022-10-16T06:31:06;0.93;;;0.93;;
49041;SDS011;34859;51.608;11.462;2022-10-16T06:33:51;1.20;;;0.90;;
49041;SDS011;34859;51.608;11.462;2022-10-16T06:36:36;0.80;;;0.80;;
49041;SDS011;34859;51.608;11.462;2022-10-16T06:39:21;3.42;;;0.90;;
49041;SDS011;34859;51.608;11.462;2022-10-16T06:42:05;1.50;;;1.40;;
49041;SDS011;34859;51.608;11.462;2022-10-16T06:44:49;1.57;;;1.47;;
49041;SDS011;34859;51.608;11.462;2022-10-16T06:47:33;2.65;;;2.45;;
49041;SDS011;34859;51.608;11.462;2022-10-16T06:50:17;2.40;;;1.98;;
49041;SDS011;34859;51.608;11.462;2022-10-16T06:53:01;0.85;;;0.85;;
49041;SDS011;34859;51.608;11.462;2022-10-16T06:55:46;4.53;;;1.10;;
49041;SDS011;34859;51.608;11.462;2022-10-16T06:58:30;2.83;;;1.17;;
49041;SDS011;34859;51.608;11.462;2022-10-16T07:01:14;1.45;;;1.10;;
49041;SDS011;34859;51.608;11.462;2022-10-16T07:04:00;0.80;;;0.75;;
49041;SDS011;34859;51.608;11.462;2022-10-16T07:09:29;4.60;;;1.05;;
49041;SDS011;34859;51.608;11.462;2022-10-16T07:12:13;2.88;;;0.98;;
49041;SDS011;34859;51.608;11.462;2022-10-16T07:14:57;1.15;;;0.90;;
49041;SDS011;34859;51.608;11.462;2022-10-16T07:17:41;2.90;;;1.25;;
49041;SDS011;34859;51.608;11.462;2022-10-16T07:20:25;1.23;;;0.70;;
49041;SDS011;34859;51.608;11.462;2022-10-16T07:23:09;2.90;;;0.93;;
49041;SDS011;34859;51.608;11.462;2022-10-16T07:25:53;3.65;;;1.27;;
49041;SDS011;34859;51.608;11.462;2022-10-16T07:28:38;0.80;;;0.80;;
49041;SDS011;34859;51.608;11.462;2022-10-16T07:31:23;6.28;;;1.35;;
49041;SDS011;34859;51.608;11.462;2022-10-16T07:34:08;0.70;;;0.70;;
49041;SDS011;34859;51.608;11.462;2022-10-16T07:36:53;0.68;;;0.68;;
49041;SDS011;34859;51.608;11.462;2022-10-16T07:39:37;0.70;;;0.70;;
49041;SDS011;34859;51.608;11.462;2022-10-16T07:42:21;0.80;;;0.80;;
49041;SDS011;34859;51.608;11.462;2022-10-16T07:45:05;3.03;;;0.73;;
49041;SDS011;34859;51.608;11.462;2022-10-16T07:47:49;0.88;;;0.68;;
49041;SDS011;34859;51.608;11.462;2022-10-16T07:50:34;0.97;;;0.87;;
49041;SDS011;34859;51.608;11.462;2022-10-16T07:53:18;2.22;;;0.85;;
49041;SDS011;34859;51.608;11.462;2022-10-16T07:56:03;0.60;;;0.50;;
49041;SDS011;34859;51.608;11.462;2022-10-16T07:58:49;0.55;;;0.50;;
49041;SDS011;34859;51.608;11.462;2022-10-16T08:01:34;1.52;;;0.50;;
49041;SDS011;34859;51.608;11.462;2022-10-16T08:04:18;0.55;;;0.45;;
49041;SDS011;34859;51.608;11.462;2022-10-16T08:07:02;0.60;;;0.60;;
49041;SDS011;34859;51.608;11.462;2022-10-16T08:09:48;0.63;;;0.50;;
49041;SDS011;34859;51.608;11.462;2022-10-16T08:12:33;1.88;;;0.50;;
49041;SDS011;34859;51.608;11.462;2022-10-16T08:15:18;3.40;;;0.73;;
49041;SDS011;34859;51.608;11.462;2022-10-16T08:18:03;0.60;;;0.60;;
49041;SDS011;34859;51.608;11.462;2022-10-16T08:20:54;1.42;;;0.43;;
49041;SDS011;34859;51.608;11.462;2022-10-16T08:23:40;0.60;;;0.60;;
49041;SDS011;34859;51.608;11.462;2022-10-16T08:26:25;0.98;;;0.40;;
49041;SDS011;34859;51.608;11.462;2022-10-16T08:29:10;1.67;;;0.60;;
49041;SDS011;34859;51.608;11.462;2022-10-16T08:31:56;0.50;;;0.50;;
49041;SDS011;34859;51.608;11.462;2022-10-16T08:34:40;1.10;;;0.50;;
49041;SDS011;34859;51.608;11.462;2022-10-16T08:37:24;0.40;;;0.40;;
49041;SDS011;34859;51.608;11.462;2022-10-16T08:40:20;0.52;;;0.52;;
49041;SDS011;34859;51.608;11.462;2022-10-16T08:49:21;0.40;;;0.40;;
49041;SDS011;34859;51.608;11.462;2022-10-16T08:52:11;0.63;;;0.63;;
49041;SDS011;34859;51.608;11.462;2022-10-16T08:54:57;2.15;;;0.50;;
49041;SDS011;34859;51.608;11.462;2022-10-16T08:57:42;2.20;;;0.40;;
49041;SDS011;34859;51.608;11.462;2022-10-16T09:00:26;1.63;;;0.50;;
49041;SDS011;34859;51.608;11.462;2022-10-16T09:21:30;0.30;;;0.30;;
49041;SDS011;34859;51.608;11.462;2022-10-16T09:24:20;2.40;;;0.25;;
49041;SDS011;34859;51.608;11.462;2022-10-16T09:27:11;1.65;;;0.30;;
49041;SDS011;34859;51.608;11.462;2022-10-16T09:29:57;0.60;;;0.20;;
49041;SDS011;34859;51.608;11.462;2022-10-16T09:32:41;0.60;;;0.43;;
49041;SDS011;34859;51.608;11.462;2022-10-16T09:35:32;0.70;;;0.50;;
49041;SDS011;34859;51.608;11.462;2022-10-16T09:38:23;0.30;;;0.30;;
49041;SDS011;34859;51.608;11.462;2022-10-16T09:41:16;2.08;;;0.30;;
49041;SDS011;34859;51.608;11.462;2022-10-16T09:44:06;1.92;;;0.40;;
49041;SDS011;34859;51.608;11.462;2022-10-16T09:47:12;0.45;;;0.20;;
49041;SDS011;34859;51.608;11.462;2022-10-16T09:50:04;0.30;;;0.20;;
49041;SDS011;34859;51.608;11.462;2022-10-16T09:53:03;0.30;;;0.30;;
49041;SDS011;34859;51.608;11.462;2022-10-16T09:55:58;0.40;;;0.30;;
49041;SDS011;34859;51.608;11.462;2022-10-16T09:58:43;1.50;;;0.30;;
49041;SDS011;34859;51.608;11.462;2022-10-16T10:01:36;0.20;;;0.20;;
49041;SDS011;34859;51.608;11.462;2022-10-16T10:04:23;0.90;;;0.50;;
49041;SDS011;34859;51.608;11.462;2022-10-16T10:07:16;3.13;;;0.30;;
49041;SDS011;34859;51.608;11.462;2022-10-16T10:10:04;0.45;;;0.38;;
49041;SDS011;34859;51.608;11.462;2022-10-16T10:12:49;0.43;;;0.20;;
49041;SDS011;34859;51.608;11.462;2022-10-16T10:15:34;1.55;;;0.43;;
49041;SDS011;34859;51.608;11.462;2022-10-16T10:18:25;0.75;;;0.40;;
49041;SDS011;34859;51.608;11.462;2022-10-16T10:21:12;1.52;;;0.30;;
49041;SDS011;34859;51.608;11.462;2022-10-16T10:23:59;0.85;;;0.30;;
49041;SDS011;34859;51.608;11.462;2022-10-16T10:38:56;0.63;;;0.40;;
49041;SDS011;34859;51.608;11.462;2022-10-16T11:05:52;1.48;;;0.30;;
49041;SDS011;34859;51.608;11.462;2022-10-16T11:08:50;1.20;;;0.40;;
49041;SDS011;34859;51.608;11.462;2022-10-16T11:11:47;3.47;;;0.20;;
49041;SDS011;34859;51.608;11.462;2022-10-16T11:17:32;0.13;;;0.13;;
49041;SDS011;34859;51.608;11.462;2022-10-16T11:20:38;0.20;;;0.20;;
49041;SDS011;34859;51.608;11.462;2022-10-16T11:23:33;1.55;;;0.30;;
49041;SDS011;34859;51.608;11.462;2022-10-16T11:26:26;0.57;;;0.30;;
49041;SDS011;34859;51.608;11.462;2022-10-16T11:29:16;2.08;;;0.20;;
49041;SDS011;34859;51.608;11.462;2022-10-16T11:32:32;0.13;;;0.13;;
49041;SDS011;34859;51.608;11.462;2022-10-16T11:41:35;0.17;;;0.10;;
49041;SDS011;34859;51.608;11.462;2022-10-16T11:48:14;0.13;;;0.13;;
49041;SDS011;34859;51.608;11.462;2022-10-16T11:51:02;0.20;;;0.20;;
49041;SDS011;34859;51.608;11.462;2022-10-16T11:54:01;0.20;;;0.20;;
49041;SDS011;34859;51.608;11.462;2022-10-16T11:57:02;0.20;;;0.10;;
49041;SDS011;34859;51.608;11.462;2022-10-16T12:09:30;0.30;;;0.30;;
49041;SDS011;34859;51.608;11.462;2022-10-16T12:12:25;1.92;;;0.28;;
49041;SDS011;34859;51.608;11.462;2022-10-16T12:15:19;3.17;;;0.20;;
49041;SDS011;34859;51.608;11.462;2022-10-16T12:18:07;0.30;;;0.20;;
49041;SDS011;34859;51.608;11.462;2022-10-16T12:21:04;1.73;;;0.30;;
49041;SDS011;34859;51.608;11.462;2022-10-16T12:24:02;0.10;;;0.10;;
49041;SDS011;34859;51.608;11.462;2022-10-16T12:26:48;0.00;;;0.00;;
49041;SDS011;34859;51.608;11.462;2022-10-16T12:29:39;1.75;;;0.13;;
49041;SDS011;34859;51.608;11.462;2022-10-16T12:32:35;0.90;;;0.10;;
49041;SDS011;34859;51.608;11.462;2022-10-16T12:35:23;0.17;;;0.17;;
49041;SDS011;34859;51.608;11.462;2022-10-16T12:41:11;1.00;;;0.20;;
49041;SDS011;34859;51.608;11.462;2022-10-16T12:43:58;0.43;;;0.10;;
49041;SDS011;34859;51.608;11.462;2022-10-16T12:46:46;0.77;;;0.45;;
49041;SDS011;34859;51.608;11.462;2022-10-16T12:49:31;0.10;;;0.10;;
49041;SDS011;34859;51.608;11.462;2022-10-16T12:55:21;0.30;;;0.10;;
49041;SDS011;34859;51.608;11.462;2022-10-16T12:58:09;0.15;;;0.10;;
49041;SDS011;34859;51.608;11.462;2022-10-16T13:07:17;0.88;;;0.20;;
49041;SDS011;34859;51.608;11.462;2022-10-16T13:10:16;0.30;;;0.10;;
49041;SDS011;34859;51.608;11.462;2022-10-16T13:20:03;0.80;;;0.10;;
49041;SDS011;34859;51.608;11.462;2022-10-16T13:28:44;0.90;;;0.20;;
49041;SDS011;34859;51.608;11.462;2022-10-16T13:31:29;0.20;;;0.20;;
49041;SDS011;34859;51.608;11.462;2022-10-16T13:34:20;0.57;;;0.20;;
49041;SDS011;34859;51.608;11.462;2022-10-16T13:37:15;1.20;;;0.20;;
49041;SDS011;34859;51.608;11.462;2022-10-16T13:40:08;0.20;;;0.20;;
49041;SDS011;34859;51.608;11.462;2022-10-16T13:43:03;3.28;;;0.38;;
49041;SDS011;34859;51.608;11.462;2022-10-16T13:45:58;0.20;;;0.20;;
49041;SDS011;34859;51.608;11.462;2022-10-16T13:49:14;1.75;;;0.10;;
49041;SDS011;34859;51.608;11.462;2022-10-16T13:52:00;0.93;;;0.20;;
49041;SDS011;34859;51.608;11.462;2022-10-16T13:54:44;0.40;;;0.10;;
49041;SDS011;34859;51.608;11.462;2022-10-16T13:57:29;0.35;;;0.10;;
49041;SDS011;34859;51.608;11.462;2022-10-16T14:00:32;0.20;;;0.20;;
49041;SDS011;34859;51.608;11.462;2022-10-16T14:03:19;2.90;;;0.20;;
49041;SDS011;34859;51.608;11.462;2022-10-16T14:06:04;0.68;;;0.10;;
49041;SDS011;34859;51.608;11.462;2022-10-16T14:08:58;0.95;;;0.10;;
49041;SDS011;34859;51.608;11.462;2022-10-16T14:11:46;0.10;;;0.10;;
49041;SDS011;34859;51.608;11.462;2022-10-16T14:14:42;0.20;;;0.10;;
49041;SDS011;34859;51.608;11.462;2022-10-16T14:17:33;2.42;;;0.10;;
49041;SDS011;34859;51.608;11.462;2022-10-16T14:20:20;1.55;;;0.25;;
49041;SDS011;34859;51.608;11.462;2022-10-16T14:26:15;0.10;;;0.10;;
49041;SDS011;34859;51.608;11.462;2022-10-16T14:29:13;1.45;;;0.10;;
49041;SDS011;34859;51.608;11.462;2022-10-16T14:32:03;0.38;;;0.20;;
49041;SDS011;34859;51.608;11.462;2022-10-16T14:34:53;3.50;;;0.20;;
49041;SDS011;34859;51.608;11.462;2022-10-16T14:37:37;1.30;;;0.45;;
49041;SDS011;34859;51.608;11.462;2022-10-16T14:40:24;1.85;;;0.20;;
49041;SDS011;34859;51.608;11.462;2022-10-16T14:43:14;0.10;;;0.10;;
49041;SDS011;34859;51.608;11.462;2022-10-16T14:46:11;0.30;;;0.20;;
49041;SDS011;34859;51.608;11.462;2022-10-16T14:49:02;1.27;;;0.15;;
49041;SDS011;34859;51.608;11.462;2022-10-16T14:51:56;0.17;;;0.15;;
49041;SDS011;34859;51.608;11.462;2022-10-16T14:57:26;1.48;;;0.30;;
49041;SDS011;34859;51.608;11.462;2022-10-16T15:00:23;0.20;;;0.10;;
49041;SDS011;34859;51.608;11.462;2022-10-16T15:03:07;0.77;;;0.17;;
49041;SDS011;34859;51.608;11.462;2022-10-16T15:05:52;4.95;;;0.20;;
49041;SDS011;34859;51.608;11.462;2022-10-16T15:08:36;2.55;;;0.10;;
49041;SDS011;34859;51.608;11.462;2022-10-16T15:11:20;0.83;;;0.20;;
49041;SDS011;34859;51.608;11.462;2022-10-16T15:14:04;0.22;;;0.20;;
49041;SDS011;34859;51.608;11.462;2022-10-16T15:16:49;0.15;;;0.15;;
49041;SDS011;34859;51.608;11.462;2022-10-16T15:19:33;0.52;;;0.17;;
49041;SDS011;34859;51.608;11.462;2022-10-16T15:22:18;1.48;;;0.20;;
49041;SDS011;34859;51.608;11.462;2022-10-16T15:25:08;2.13;;;0.38;;
49041;SDS011;34859;51.608;11.462;2022-10-16T15:27:49;3.20;;;0.32;;
49041;SDS011;34859;51.608;11.462;2022-10-16T15:30:33;0.33;;;0.20;;
49041;SDS011;34859;51.608;11.462;2022-10-16T15:33:23;0.30;;;0.30;;
49041;SDS011;34859;51.608;11.462;2022-10-16T15:36:11;0.82;;;0.20;;
49041;SDS011;34859;51.608;11.462;2022-10-16T15:38:55;0.52;;;0.20;;
49041;SDS011;34859;51.608;11.462;2022-10-16T15:41:40;1.55;;;0.30;;
49041;SDS011;34859;51.608;11.462;2022-10-16T15:44:24;1.00;;;0.60;;
49041;SDS011;34859;51.608;11.462;2022-10-16T15:47:13;0.20;;;0.20;;
49041;SDS011;34859;51.608;11.462;2022-10-16T15:49:57;2.67;;;0.25;;
49041;SDS011;34859;51.608;11.462;2022-10-16T15:52:41;0.13;;;0.13;;
49041;SDS011;34859;51.608;11.462;2022-10-16T15:55:26;0.50;;;0.20;;
49041;SDS011;34859;51.608;11.462;2022-10-16T15:58:10;0.43;;;0.30;;
49041;SDS011;34859;51.608;11.462;2022-10-16T16:00:57;0.20;;;0.20;;
49041;SDS011;34859;51.608;11.462;2022-10-16T16:03:44;0.40;;;0.30;;
49041;SDS011;34859;51.608;11.462;2022-10-16T16:06:29;0.20;;;0.20;;
49041;SDS011;34859;51.608;11.462;2022-10-16T16:09:14;3.33;;;0.28;;
49041;SDS011;34859;51.608;11.462;2022-10-16T16:11:58;0.85;;;0.30;;
49041;SDS011;34859;51.608;11.462;2022-10-16T16:14:44;0.45;;;0.45;;
49041;SDS011;34859;51.608;11.462;2022-10-16T16:17:32;0.50;;;0.22;;
49041;SDS011;34859;51.608;11.462;2022-10-16T16:20:17;0.28;;;0.20;;
49041;SDS011;34859;51.608;11.462;2022-10-16T16:23:01;0.60;;;0.60;;
49041;SDS011;34859;51.608;11.462;2022-10-16T16:26:01;1.20;;;1.10;;
49041;SDS011;34859;51.608;11.462;2022-10-16T16:29:04;0.80;;;0.80;;
49041;SDS011;34859;51.608;11.462;2022-10-16T16:31:49;1.17;;;0.68;;
49041;SDS011;34859;51.608;11.462;2022-10-16T16:34:33;0.88;;;0.88;;
49041;SDS011;34859;51.608;11.462;2022-10-16T16:37:17;1.38;;;1.27;;
49041;SDS011;34859;51.608;11.462;2022-10-16T16:40:01;1.40;;;1.30;;
49041;SDS011;34859;51.608;11.462;2022-10-16T16:42:47;2.63;;;1.30;;
49041;SDS011;34859;51.608;11.462;2022-10-16T16:45:35;2.75;;;2.30;;
49041;SDS011;34859;51.608;11.462;2022-10-16T16:48:19;5.35;;;4.95;;
49041;SDS011;34859;51.608;11.462;2022-10-16T16:53:50;19.55;;;17.45;;
49041;SDS011;34859;51.608;11.462;2022-10-16T16:56:35;17.02;;;15.32;;
49041;SDS011;34859;51.608;11.462;2022-10-16T16:59:19;14.68;;;13.27;;
49041;SDS011;34859;51.608;11.462;2022-10-16T17:02:05;12.57;;;11.38;;
49041;SDS011;34859;51.608;11.462;2022-10-16T17:04:49;12.25;;;11.15;;
49041;SDS011;34859;51.608;11.462;2022-10-16T17:10:18;11.02;;;9.90;;
49041;SDS011;34859;51.608;11.462;2022-10-16T17:13:02;8.57;;;7.87;;
49041;SDS011;34859;51.608;11.462;2022-10-16T17:15:47;10.35;;;7.43;;
49041;SDS011;34859;51.608;11.462;2022-10-16T17:18:32;7.18;;;6.47;;
49041;SDS011;34859;51.608;11.462;2022-10-16T17:21:17;9.43;;;7.15;;
49041;SDS011;34859;51.608;11.462;2022-10-16T17:24:01;7.33;;;6.70;;
49041;SDS011;34859;51.608;11.462;2022-10-16T17:26:47;6.70;;;6.15;;
49041;SDS011;34859;51.608;11.462;2022-10-16T17:29:32;6.70;;;6.07;;
49041;SDS011;34859;51.608;11.462;2022-10-16T17:32:16;5.72;;;5.03;;
49041;SDS011;34859;51.608;11.462;2022-10-16T17:35:00;4.32;;;3.47;;
49041;SDS011;34859;51.608;11.462;2022-10-16T17:37:45;4.53;;;2.08;;
49041;SDS011;34859;51.608;11.462;2022-10-16T17:40:29;3.92;;;2.83;;
49041;SDS011;34859;51.608;11.462;2022-10-16T17:43:14;3.92;;;3.47;;
49041;SDS011;34859;51.608;11.462;2022-10-16T17:46:00;29.80;;;15.73;;
49041;SDS011;34859;51.608;11.462;2022-10-16T17:48:46;33.38;;;15.55;;
49041;SDS011;34859;51.608;11.462;2022-10-16T17:51:32;40.03;;;18.15;;
49041;SDS011;34859;51.608;11.462;2022-10-16T17:54:16;13.63;;;6.57;;
49041;SDS011;34859;51.608;11.462;2022-10-16T17:57:00;5.47;;;4.35;;
49041;SDS011;34859;51.608;11.462;2022-10-16T17:59:44;4.32;;;3.53;;
49041;SDS011;34859;51.608;11.462;2022-10-16T18:02:28;4.60;;;4.07;;
49041;SDS011;34859;51.608;11.462;2022-10-16T18:05:13;5.03;;;3.88;;
49041;SDS011;34859;51.608;11.462;2022-10-16T18:07:56;6.20;;;4.57;;
49041;SDS011;34859;51.608;11.462;2022-10-16T18:10:44;2.78;;;2.55;;
49041;SDS011;34859;51.608;11.462;2022-10-16T18:13:31;6.47;;;2.00;;
49041;SDS011;34859;51.608;11.462;2022-10-16T18:16:16;3.10;;;2.85;;
49041;SDS011;34859;51.608;11.462;2022-10-16T18:19:00;3.92;;;3.38;;
49041;SDS011;34859;51.608;11.462;2022-10-16T18:21:45;5.30;;;3.92;;
49041;SDS011;34859;51.608;11.462;2022-10-16T18:24:32;8.35;;;3.85;;
49041;SDS011;34859;51.608;11.462;2022-10-16T18:27:16;5.83;;;4.10;;
49041;SDS011;34859;51.608;11.462;2022-10-16T18:30:00;7.50;;;4.55;;
49041;SDS011;34859;51.608;11.462;2022-10-16T18:32:44;6.83;;;4.30;;
49041;SDS011;34859;51.608;11.462;2022-10-16T18:35:28;10.63;;;7.03;;
49041;SDS011;34859;51.608;11.462;2022-10-16T18:38:12;14.60;;;11.70;;
49041;SDS011;34859;51.608;11.462;2022-10-16T18:40:57;9.75;;;6.07;;
49041;SDS011;34859;51.608;11.462;2022-10-16T18:43:44;17.08;;;11.82;;
49041;SDS011;34859;51.608;11.462;2022-10-16T18:46:29;5.80;;;4.35;;
49041;SDS011;34859;51.608;11.462;2022-10-16T18:49:13;5.82;;;5.32;;
49041;SDS011;34859;51.608;11.462;2022-10-16T18:51:57;7.50;;;6.00;;
49041;SDS011;34859;51.608;11.462;2022-10-16T18:54:43;6.40;;;6.00;;
49041;SDS011;34859;51.608;11.462;2022-10-16T18:57:27;6.97;;;6.47;;
49041;SDS011;34859;51.608;11.462;2022-10-16T19:00:15;5.55;;;5.15;;
49041;SDS011;34859;51.608;11.462;2022-10-16T19:02:59;3.92;;;3.63;;
49041;SDS011;34859;51.608;11.462;2022-10-16T19:05:43;4.95;;;3.92;;
49041;SDS011;34859;51.608;11.462;2022-10-16T19:08:30;4.22;;;3.80;;
49041;SDS011;34859;51.608;11.462;2022-10-16T19:11:17;9.80;;;4.53;;
49041;SDS011;34859;51.608;11.462;2022-10-16T19:14:04;5.97;;;3.03;;
49041;SDS011;34859;51.608;11.462;2022-10-16T19:16:48;5.80;;;2.73;;